Time;durP1;ratioP1;P1;durP2;ratioP2;P2;SDS_P1;SDS_P2;PMS_P1;PMS_P2;Temp;Humidity;BMP_temperature;BMP_pressure;BME280_temperature;BME280_humidity;BME280_pressure;Samples;Min_cycle;Max_cycle;Signal;HPM_P1;HPM_P2
2022/12/19 00:00:00;;;;;;;201.63;63.10;;;;;;;;;;739340;187;929812;-56
2022/12/19 00:02:26;;;;;;;288.92;62.30;;;;;;;;;;742995;187;921886;-55
2022/12/19 00:04:52;;;;;;;227.43;69.10;;;;;;;;;;734641;187;919425;-56
2022/12/19 00:07:18;;;;;;;245.60;65.27;;;;;;;;;;740990;188;920232;-56
2022/12/19 00:09:44;;;;;;;180.43;61.43;;;;;;;;;;745716;188;918852;-55
2022/12/19 00:12:10;;;;;;;184.70;65.30;;;;;;;;;;744616;185;921670;-57
2022/12/19 00:14:35;;;;;;;208.50;65.40;;;;;;;;;;742229;188;831514;-57
2022/12/19 00:17:01;;;;;;;182.63;65.97;;;;;;;;;;744994;187;919303;-55
2022/12/19 00:19:27;;;;;;;192.20;65.10;;;;;;;;;;741813;188;816844;-57
2022/12/19 00:21:53;;;;;;;205.23;75.50;;;;;;;;;;738900;187;919412;-55
2022/12/19 00:24:19;;;;;;;226.17;79.17;;;;;;;;;;743119;189;918621;-55
2022/12/19 00:26:45;;;;;;;248.20;80.60;;;;;;;;;;732291;187;920102;-57
2022/12/19 00:29:11;;;;;;;221.50;74.93;;;;;;;;;;736057;187;918248;-55
2022/12/19 00:31:37;;;;;;;246.98;81.78;;;;;;;;;;736296;188;916454;-56
2022/12/19 00:34:03;;;;;;;241.60;76.13;;;;;;;;;;742600;187;889926;-57
2022/12/19 00:36:29;;;;;;;255.43;78.33;;;;;;;;;;736110;187;919064;-56
2022/12/19 00:38:55;;;;;;;253.60;86.43;;;;;;;;;;739564;187;916184;-57
2022/12/19 00:41:20;;;;;;;243.73;76.60;;;;;;;;;;745390;187;822091;-55
2022/12/19 00:43:46;;;;;;;211.07;71.53;;;;;;;;;;743603;188;838627;-55
2022/12/19 00:46:12;;;;;;;218.47;77.10;;;;;;;;;;741563;187;917815;-57
2022/12/19 00:48:38;;;;;;;203.80;70.80;;;;;;;;;;746871;188;920043;-55
2022/12/19 00:51:04;;;;;;;201.20;72.10;;;;;;;;;;739301;187;920760;-57
2022/12/19 00:53:30;;;;;;;202.95;71.05;;;;;;;;;;726733;188;918774;-56
2022/12/19 00:55:56;;;;;;;213.20;72.20;;;;;;;;;;744054;186;916033;-55
2022/12/19 00:58:22;;;;;;;208.10;73.57;;;;;;;;;;739478;188;921818;-57
2022/12/19 01:00:47;;;;;;;203.43;68.17;;;;;;;;;;733161;188;920741;-56
2022/12/19 01:03:13;;;;;;;226.40;77.73;;;;;;;;;;736828;187;918926;-55
2022/12/19 01:05:39;;;;;;;244.97;92.87;;;;;;;;;;738129;187;870534;-55
2022/12/19 01:08:05;;;;;;;247.33;81.50;;;;;;;;;;736286;188;915199;-55
2022/12/19 01:10:31;;;;;;;246.50;83.07;;;;;;;;;;740309;188;917358;-55
2022/12/19 01:12:57;;;;;;;207.63;71.27;;;;;;;;;;749902;187;919392;-56
2022/12/19 01:15:22;;;;;;;187.53;69.77;;;;;;;;;;740680;187;626424;-55
2022/12/19 01:17:48;;;;;;;193.50;69.53;;;;;;;;;;727576;190;918770;-55
2022/12/19 01:20:14;;;;;;;212.63;72.87;;;;;;;;;;749449;188;885727;-55
2022/12/19 01:22:40;;;;;;;191.80;70.70;;;;;;;;;;741584;187;905913;-55
2022/12/19 01:25:06;;;;;;;195.60;72.35;;;;;;;;;;745953;185;918967;-55
2022/12/19 01:27:32;;;;;;;230.57;76.33;;;;;;;;;;724859;191;942883;-56
2022/12/19 01:29:58;;;;;;;226.90;72.27;;;;;;;;;;735862;189;919264;-55
2022/12/19 01:32:24;;;;;;;261.33;79.60;;;;;;;;;;736969;188;921702;-55
2022/12/19 01:34:49;;;;;;;220.43;82.07;;;;;;;;;;735381;188;920149;-55
2022/12/19 01:37:15;;;;;;;236.70;76.43;;;;;;;;;;738145;188;753918;-55
2022/12/19 01:39:41;;;;;;;226.33;75.37;;;;;;;;;;740633;188;929402;-55
2022/12/19 01:42:13;;;;;;;257.02;80.12;;;;;;;;;;742111;187;919407;-55
2022/12/19 01:44:39;;;;;;;230.80;78.73;;;;;;;;;;739862;187;918692;-56
2022/12/19 01:47:06;;;;;;;246.77;79.90;;;;;;;;;;737744;188;919552;-56
2022/12/19 01:49:32;;;;;;;227.87;76.90;;;;;;;;;;745698;186;917746;-56
2022/12/19 01:51:58;;;;;;;235.10;76.47;;;;;;;;;;735807;189;917253;-55
2022/12/19 01:54:23;;;;;;;239.60;79.30;;;;;;;;;;739846;188;915023;-55
2022/12/19 01:56:49;;;;;;;266.98;84.93;;;;;;;;;;737423;188;915332;-55
2022/12/19 01:59:16;;;;;;;275.87;79.20;;;;;;;;;;737697;188;918768;-56
2022/12/19 02:01:42;;;;;;;251.57;83.15;;;;;;;;;;743486;188;917487;-55
2022/12/19 02:04:08;;;;;;;255.47;90.10;;;;;;;;;;736556;188;819341;-55
2022/12/19 02:06:34;;;;;;;303.60;91.23;;;;;;;;;;733074;188;870899;-55
2022/12/19 02:08:59;;;;;;;264.37;83.50;;;;;;;;;;732550;189;919348;-57
2022/12/19 02:11:25;;;;;;;317.27;101.17;;;;;;;;;;734886;187;925449;-55
2022/12/19 02:13:51;;;;;;;349.23;103.17;;;;;;;;;;724603;191;918763;-55
2022/12/19 02:16:34;;;;;;;333.97;101.30;;;;;;;;;;734367;188;920410;-56
2022/12/19 02:19:01;;;;;;;339.27;99.10;;;;;;;;;;733781;187;921307;-55
2022/12/19 02:21:42;;;;;;;324.20;104.00;;;;;;;;;;748240;188;909540;-55
2022/12/19 02:24:08;;;;;;;336.93;104.33;;;;;;;;;;741458;187;918355;-56
2022/12/19 02:26:39;;;;;;;252.50;81.53;;;;;;;;;;736491;188;921178;-55
2022/12/19 02:29:07;;;;;;;287.17;88.30;;;;;;;;;;737579;188;916517;-55
2022/12/19 02:31:34;;;;;;;269.23;83.00;;;;;;;;;;724547;191;920301;-55
2022/12/19 02:34:05;;;;;;;255.57;86.70;;;;;;;;;;745094;188;816594;-55
2022/12/19 02:36:34;;;;;;;242.85;84.57;;;;;;;;;;734624;188;918388;-55
2022/12/19 02:39:00;;;;;;;318.47;95.43;;;;;;;;;;737743;187;1021473;-56
2022/12/19 02:41:26;;;;;;;286.43;88.97;;;;;;;;;;741289;188;916741;-55
2022/12/19 02:43:52;;;;;;;259.62;85.82;;;;;;;;;;752681;185;748744;-55
2022/12/19 02:46:18;;;;;;;270.93;92.47;;;;;;;;;;733464;188;918231;-55
2022/12/19 02:48:43;;;;;;;299.65;90.82;;;;;;;;;;738149;188;919994;-55
2022/12/19 02:51:10;;;;;;;271.13;86.50;;;;;;;;;;737667;188;920183;-55
2022/12/19 02:53:35;;;;;;;274.53;91.07;;;;;;;;;;739327;188;816023;-56
2022/12/19 02:56:03;;;;;;;302.57;93.80;;;;;;;;;;732161;190;918631;-55
2022/12/19 02:58:32;;;;;;;284.60;89.45;;;;;;;;;;725240;191;918279;-56
2022/12/19 03:01:14;;;;;;;262.67;90.17;;;;;;;;;;737306;187;918458;-55
2022/12/19 03:03:41;;;;;;;231.20;70.93;;;;;;;;;;738753;187;1120425;-56
2022/12/19 03:06:07;;;;;;;221.87;71.40;;;;;;;;;;738835;187;918836;-55
2022/12/19 03:08:36;;;;;;;212.57;69.13;;;;;;;;;;730732;188;919856;-56
2022/12/19 03:11:04;;;;;;;223.30;71.20;;;;;;;;;;746515;187;919515;-55
2022/12/19 03:13:30;;;;;;;212.13;65.30;;;;;;;;;;735208;187;845490;-55
2022/12/19 03:15:56;;;;;;;207.35;70.45;;;;;;;;;;720264;191;918196;-56
2022/12/19 03:18:22;;;;;;;197.37;61.27;;;;;;;;;;744941;187;836504;-57
2022/12/19 03:21:02;;;;;;;166.27;63.50;;;;;;;;;;738389;187;893461;-55
2022/12/19 03:23:28;;;;;;;170.07;58.27;;;;;;;;;;728183;190;909529;-55
2022/12/19 03:25:54;;;;;;;187.07;58.50;;;;;;;;;;734182;189;920666;-54
2022/12/19 03:28:22;;;;;;;141.67;53.33;;;;;;;;;;739509;187;919047;-60
2022/12/19 03:30:47;;;;;;;171.90;53.63;;;;;;;;;;746692;188;816952;-54
2022/12/19 03:33:13;;;;;;;186.43;55.75;;;;;;;;;;740510;187;917591;-55
2022/12/19 03:35:39;;;;;;;146.53;55.23;;;;;;;;;;734643;187;919041;-56
2022/12/19 03:38:05;;;;;;;151.07;55.43;;;;;;;;;;746316;187;918724;-56
2022/12/19 03:40:31;;;;;;;150.40;54.40;;;;;;;;;;741559;187;919957;-55
2022/12/19 03:45:28;;;;;;;139.90;51.57;;;;;;;;;;742904;187;901123;-56
2022/12/19 03:47:56;;;;;;;155.87;54.47;;;;;;;;;;734081;188;821300;-55
2022/12/19 03:50:22;;;;;;;125.60;48.63;;;;;;;;;;735129;189;918323;-56
2022/12/19 03:52:47;;;;;;;145.13;49.60;;;;;;;;;;735638;188;919806;-56
2022/12/19 03:55:22;;;;;;;133.73;50.13;;;;;;;;;;744794;187;918689;-55
2022/12/19 03:57:53;;;;;;;111.23;46.63;;;;;;;;;;749451;187;819435;-55
2022/12/19 04:00:19;;;;;;;121.23;51.20;;;;;;;;;;729114;187;919257;-56
2022/12/19 04:02:44;;;;;;;131.13;49.17;;;;;;;;;;733543;188;924027;-54
2022/12/19 04:05:11;;;;;;;118.30;47.70;;;;;;;;;;745597;188;918710;-54
2022/12/19 04:07:37;;;;;;;128.18;50.58;;;;;;;;;;736586;188;916872;-56
2022/12/19 04:10:05;;;;;;;125.60;45.90;;;;;;;;;;737364;187;917454;-56
2022/12/19 04:12:31;;;;;;;118.50;48.30;;;;;;;;;;738638;188;918515;-56
2022/12/19 04:14:57;;;;;;;128.97;51.50;;;;;;;;;;741636;188;919111;-55
2022/12/19 04:17:23;;;;;;;122.83;45.30;;;;;;;;;;741157;187;917094;-57
2022/12/19 04:19:50;;;;;;;128.33;46.53;;;;;;;;;;735570;187;919123;-55
2022/12/19 04:22:26;;;;;;;131.70;52.67;;;;;;;;;;740003;187;917698;-54
2022/12/19 04:24:52;;;;;;;134.17;51.50;;;;;;;;;;744090;188;918656;-56
2022/12/19 04:27:17;;;;;;;133.43;50.70;;;;;;;;;;737835;187;923139;-56
2022/12/19 04:29:43;;;;;;;121.00;50.03;;;;;;;;;;739810;187;916564;-56
2022/12/19 04:32:09;;;;;;;126.33;46.77;;;;;;;;;;735361;189;919108;-55
2022/12/19 04:34:35;;;;;;;129.40;48.97;;;;;;;;;;711445;196;919113;-55
2022/12/19 04:37:01;;;;;;;118.93;47.93;;;;;;;;;;744191;187;918895;-56
2022/12/19 04:39:27;;;;;;;118.82;49.20;;;;;;;;;;742831;188;920333;-56
2022/12/19 04:41:53;;;;;;;106.53;43.13;;;;;;;;;;739420;188;920283;-55
2022/12/19 04:44:18;;;;;;;129.03;49.90;;;;;;;;;;742069;188;919141;-55
2022/12/19 04:46:44;;;;;;;104.72;43.50;;;;;;;;;;742928;187;919019;-56
2022/12/19 04:49:10;;;;;;;104.77;42.67;;;;;;;;;;746160;187;818035;-55
2022/12/19 04:51:36;;;;;;;104.20;46.28;;;;;;;;;;745092;187;914003;-54
2022/12/19 04:54:02;;;;;;;114.83;43.40;;;;;;;;;;740434;188;919078;-56
2022/12/19 04:56:28;;;;;;;103.70;44.50;;;;;;;;;;745540;188;919184;-55
2022/12/19 04:58:57;;;;;;;128.50;48.17;;;;;;;;;;737489;187;816360;-56
2022/12/19 05:01:22;;;;;;;88.93;42.17;;;;;;;;;;734889;188;912912;-55
2022/12/19 05:03:48;;;;;;;107.17;41.73;;;;;;;;;;740680;188;818009;-56
2022/12/19 05:06:14;;;;;;;97.97;40.33;;;;;;;;;;738005;187;892786;-56
2022/12/19 05:08:40;;;;;;;115.77;41.67;;;;;;;;;;733533;187;920897;-55
2022/12/19 05:11:06;;;;;;;111.43;39.95;;;;;;;;;;736557;187;910165;-56
2022/12/19 05:13:31;;;;;;;97.70;41.60;;;;;;;;;;743817;186;920565;-56
2022/12/19 05:15:58;;;;;;;82.90;36.77;;;;;;;;;;737244;187;919577;-55
2022/12/19 05:18:24;;;;;;;93.73;39.93;;;;;;;;;;738374;188;917567;-56
2022/12/19 05:20:50;;;;;;;95.57;40.40;;;;;;;;;;739943;188;919296;-55
2022/12/19 05:23:16;;;;;;;87.07;38.47;;;;;;;;;;732365;187;919799;-57
2022/12/19 05:25:41;;;;;;;95.13;39.93;;;;;;;;;;736016;188;934210;-55
2022/12/19 05:28:07;;;;;;;120.53;43.50;;;;;;;;;;743925;188;921535;-55
2022/12/19 05:30:33;;;;;;;107.10;46.40;;;;;;;;;;740658;188;918724;-56
2022/12/19 05:33:00;;;;;;;94.22;43.35;;;;;;;;;;741257;187;1021320;-56
2022/12/19 05:35:25;;;;;;;102.43;39.87;;;;;;;;;;739930;187;1013014;-55
2022/12/19 05:37:51;;;;;;;113.47;41.70;;;;;;;;;;745104;187;819345;-56
2022/12/19 05:40:17;;;;;;;110.00;48.07;;;;;;;;;;741206;188;917612;-57
2022/12/19 05:42:42;;;;;;;116.97;46.00;;;;;;;;;;739002;188;816673;-57
2022/12/19 05:45:08;;;;;;;107.95;45.38;;;;;;;;;;742304;186;917159;-56
2022/12/19 05:47:34;;;;;;;112.13;44.33;;;;;;;;;;737915;188;822663;-55
2022/12/19 05:50:00;;;;;;;112.70;46.33;;;;;;;;;;739444;187;919313;-55
2022/12/19 05:52:26;;;;;;;109.50;44.57;;;;;;;;;;750380;188;620759;-56
2022/12/19 05:54:52;;;;;;;107.70;46.53;;;;;;;;;;737193;188;920891;-56
2022/12/19 05:57:17;;;;;;;95.27;40.00;;;;;;;;;;735781;188;916826;-56
2022/12/19 05:59:43;;;;;;;95.47;41.90;;;;;;;;;;745515;188;911448;-56
2022/12/19 06:02:09;;;;;;;106.00;42.47;;;;;;;;;;737258;188;920264;-56
2022/12/19 06:04:35;;;;;;;110.03;44.03;;;;;;;;;;740158;188;918779;-55
2022/12/19 06:07:01;;;;;;;109.00;44.63;;;;;;;;;;741205;187;920496;-56
2022/12/19 06:09:27;;;;;;;96.07;42.77;;;;;;;;;;742427;188;878286;-55
2022/12/19 06:11:53;;;;;;;87.70;42.37;;;;;;;;;;736838;188;918192;-56
2022/12/19 06:14:19;;;;;;;110.37;42.43;;;;;;;;;;738860;187;948984;-56
2022/12/19 06:16:44;;;;;;;98.30;42.80;;;;;;;;;;745617;185;917206;-56
2022/12/19 06:19:10;;;;;;;90.47;41.43;;;;;;;;;;732284;188;822577;-56
2022/12/19 06:21:36;;;;;;;93.60;42.83;;;;;;;;;;731511;189;914945;-55
2022/12/19 06:24:02;;;;;;;88.57;39.53;;;;;;;;;;745399;188;915225;-55
2022/12/19 06:26:28;;;;;;;86.87;39.80;;;;;;;;;;737973;187;912609;-56
2022/12/19 06:28:53;;;;;;;89.63;37.20;;;;;;;;;;734488;188;917265;-56
2022/12/19 06:31:21;;;;;;;86.87;41.97;;;;;;;;;;737033;188;916214;-56
2022/12/19 06:33:46;;;;;;;86.87;37.80;;;;;;;;;;742527;188;919170;-54
2022/12/19 06:36:14;;;;;;;81.13;36.80;;;;;;;;;;736291;188;817375;-56
2022/12/19 06:38:40;;;;;;;80.17;35.67;;;;;;;;;;738842;188;918371;-55
2022/12/19 06:43:37;;;;;;;70.60;33.80;;;;;;;;;;737745;187;919175;-55
2022/12/19 06:46:04;;;;;;;60.87;32.40;;;;;;;;;;742197;187;920922;-54
2022/12/19 06:48:29;;;;;;;63.22;32.95;;;;;;;;;;739195;187;919227;-54
2022/12/19 06:50:55;;;;;;;73.47;33.23;;;;;;;;;;738483;187;840700;-55
2022/12/19 06:53:21;;;;;;;69.40;31.70;;;;;;;;;;736694;188;919900;-56
2022/12/19 06:55:47;;;;;;;71.50;34.77;;;;;;;;;;741285;188;918006;-60
2022/12/19 06:58:13;;;;;;;64.13;31.23;;;;;;;;;;743200;187;916832;-56
2022/12/19 07:00:38;;;;;;;50.40;26.07;;;;;;;;;;741244;188;821379;-54
2022/12/19 07:03:04;;;;;;;59.23;31.10;;;;;;;;;;733551;188;918576;-56
2022/12/19 07:05:30;;;;;;;59.90;29.12;;;;;;;;;;742678;188;915508;-56
2022/12/19 07:07:56;;;;;;;53.90;25.93;;;;;;;;;;738727;188;919644;-54
2022/12/19 07:10:22;;;;;;;64.40;30.43;;;;;;;;;;733159;189;939797;-55
2022/12/19 07:12:48;;;;;;;60.87;27.53;;;;;;;;;;737141;188;821038;-56
2022/12/19 07:15:14;;;;;;;57.27;25.27;;;;;;;;;;748377;184;823964;-55
2022/12/19 07:17:39;;;;;;;54.70;25.40;;;;;;;;;;741842;187;918681;-56
2022/12/19 07:20:05;;;;;;;53.43;26.13;;;;;;;;;;740386;189;819423;-55
2022/12/19 07:22:31;;;;;;;55.57;26.97;;;;;;;;;;742152;187;919469;-56
2022/12/19 07:24:57;;;;;;;52.17;25.00;;;;;;;;;;731784;188;916879;-54
2022/12/19 07:27:23;;;;;;;66.07;26.60;;;;;;;;;;745272;187;915275;-55
2022/12/19 07:29:49;;;;;;;57.27;27.17;;;;;;;;;;736928;188;917463;-54
2022/12/19 07:32:15;;;;;;;50.10;23.20;;;;;;;;;;730273;189;913944;-55
2022/12/19 07:34:41;;;;;;;61.27;28.93;;;;;;;;;;736882;188;860522;-55
2022/12/19 07:37:06;;;;;;;71.27;36.07;;;;;;;;;;737890;188;881229;-56
2022/12/19 07:39:32;;;;;;;62.17;29.23;;;;;;;;;;744912;187;817627;-55
2022/12/19 07:41:58;;;;;;;68.07;33.17;;;;;;;;;;738715;188;918735;-55
2022/12/19 07:44:24;;;;;;;65.37;30.93;;;;;;;;;;736996;187;916579;-55
2022/12/19 07:46:50;;;;;;;66.57;32.00;;;;;;;;;;730126;190;919295;-56
2022/12/19 07:49:16;;;;;;;65.70;28.63;;;;;;;;;;738522;187;919990;-55
2022/12/19 07:51:41;;;;;;;53.37;28.23;;;;;;;;;;741910;188;919374;-56
2022/12/19 07:54:07;;;;;;;55.00;25.00;;;;;;;;;;740922;189;860551;-55
2022/12/19 07:56:33;;;;;;;49.27;23.50;;;;;;;;;;732041;191;919252;-56
2022/12/19 07:58:59;;;;;;;48.17;24.30;;;;;;;;;;724400;192;921594;-57
2022/12/19 08:01:26;;;;;;;48.47;25.70;;;;;;;;;;743492;188;921589;-55
2022/12/19 08:03:53;;;;;;;51.20;24.30;;;;;;;;;;743987;187;922329;-57
2022/12/19 08:06:19;;;;;;;48.47;27.20;;;;;;;;;;735189;187;918848;-56
2022/12/19 08:08:45;;;;;;;48.30;24.20;;;;;;;;;;732273;189;817114;-56
2022/12/19 08:11:12;;;;;;;43.73;23.40;;;;;;;;;;746788;187;919207;-56
2022/12/19 08:13:37;;;;;;;44.13;21.40;;;;;;;;;;740224;188;817153;-56
2022/12/19 08:16:04;;;;;;;46.77;20.23;;;;;;;;;;740489;187;917810;-56
2022/12/19 08:18:29;;;;;;;43.03;20.53;;;;;;;;;;740711;188;817107;-56
2022/12/19 08:20:55;;;;;;;41.23;19.43;;;;;;;;;;734531;187;920091;-56
2022/12/19 08:23:21;;;;;;;49.25;21.50;;;;;;;;;;739141;188;906691;-58
2022/12/19 08:25:47;;;;;;;40.17;21.87;;;;;;;;;;734515;188;915173;-57
2022/12/19 08:28:13;;;;;;;39.80;19.17;;;;;;;;;;743630;187;816410;-57
2022/12/19 08:30:39;;;;;;;51.47;20.92;;;;;;;;;;735467;187;917710;-56
2022/12/19 08:33:05;;;;;;;49.87;24.97;;;;;;;;;;739033;187;919477;-57
2022/12/19 08:35:30;;;;;;;43.40;21.77;;;;;;;;;;740308;189;815940;-58
2022/12/19 08:37:56;;;;;;;45.83;21.33;;;;;;;;;;731350;189;919908;-57
2022/12/19 08:40:22;;;;;;;48.37;23.97;;;;;;;;;;740619;187;917443;-59
2022/12/19 08:42:49;;;;;;;45.47;20.80;;;;;;;;;;739921;188;918572;-57
2022/12/19 08:45:14;;;;;;;54.47;22.17;;;;;;;;;;737380;188;919815;-58
2022/12/19 08:47:40;;;;;;;47.67;21.47;;;;;;;;;;736287;188;923426;-59
2022/12/19 08:50:06;;;;;;;48.00;21.65;;;;;;;;;;744746;188;919155;-57
2022/12/19 08:52:32;;;;;;;49.63;21.20;;;;;;;;;;744004;188;919479;-58
2022/12/19 08:54:58;;;;;;;44.07;22.97;;;;;;;;;;736942;188;919130;-59
2022/12/19 08:57:24;;;;;;;49.37;26.33;;;;;;;;;;737775;188;920354;-59
2022/12/19 08:59:49;;;;;;;48.97;23.17;;;;;;;;;;743215;186;817574;-58
2022/12/19 09:02:15;;;;;;;50.77;26.23;;;;;;;;;;738997;187;918771;-58
2022/12/19 09:04:41;;;;;;;51.23;24.30;;;;;;;;;;740008;188;922835;-58
2022/12/19 09:07:07;;;;;;;44.47;21.53;;;;;;;;;;743530;187;918478;-58
2022/12/19 09:09:33;;;;;;;42.90;20.37;;;;;;;;;;736271;187;920134;-58
2022/12/19 09:11:59;;;;;;;46.37;20.67;;;;;;;;;;741542;187;817094;-58
2022/12/19 09:14:24;;;;;;;43.13;20.40;;;;;;;;;;744548;188;920903;-60
2022/12/19 09:16:51;;;;;;;47.40;22.23;;;;;;;;;;731710;188;918628;-59
2022/12/19 09:19:17;;;;;;;50.57;23.60;;;;;;;;;;741020;187;816931;-60
2022/12/19 09:21:43;;;;;;;46.37;24.83;;;;;;;;;;739064;189;916761;-58
2022/12/19 09:24:09;;;;;;;41.57;24.10;;;;;;;;;;741342;187;919187;-60
2022/12/19 09:26:34;;;;;;;48.67;24.10;;;;;;;;;;741839;188;922967;-58
2022/12/19 09:29:02;;;;;;;50.57;25.20;;;;;;;;;;737117;187;919888;-58
2022/12/19 09:31:26;;;;;;;44.67;23.03;;;;;;;;;;737825;188;918463;-58
2022/12/19 09:33:52;;;;;;;48.17;24.57;;;;;;;;;;736073;188;921930;-58
2022/12/19 09:36:18;;;;;;;52.93;26.50;;;;;;;;;;742024;186;1022179;-59
2022/12/19 09:38:44;;;;;;;59.13;29.67;;;;;;;;;;744824;187;920524;-59
2022/12/19 09:41:15;;;;;;;57.87;27.53;;;;;;;;;;742167;187;921235;-58
2022/12/19 09:43:44;;;;;;;51.00;25.47;;;;;;;;;;737451;187;922252;-58
2022/12/19 09:46:11;;;;;;;53.20;27.90;;;;;;;;;;732622;188;919456;-58
2022/12/19 09:48:36;;;;;;;54.97;24.07;;;;;;;;;;740232;188;919109;-58
2022/12/19 09:51:02;;;;;;;46.33;25.30;;;;;;;;;;737507;187;920024;-59
2022/12/19 09:53:28;;;;;;;48.90;24.90;;;;;;;;;;733609;188;918840;-60
2022/12/19 09:55:54;;;;;;;42.63;21.80;;;;;;;;;;736428;188;918945;-59
2022/12/19 09:58:24;;;;;;;39.80;21.57;;;;;;;;;;738892;188;918209;-59
2022/12/19 10:00:52;;;;;;;46.73;23.73;;;;;;;;;;743977;187;902623;-58
2022/12/19 10:03:33;;;;;;;38.03;21.70;;;;;;;;;;741626;188;918227;-57
2022/12/19 10:06:17;;;;;;;49.40;22.65;;;;;;;;;;739118;187;934383;-59
2022/12/19 10:08:43;;;;;;;47.87;22.17;;;;;;;;;;725540;191;919073;-57
2022/12/19 10:11:16;;;;;;;49.80;23.62;;;;;;;;;;733501;189;918834;-59
2022/12/19 10:13:42;;;;;;;52.50;24.07;;;;;;;;;;739491;187;920812;-60
2022/12/19 10:16:10;;;;;;;51.10;24.70;;;;;;;;;;743810;187;919480;-58
2022/12/19 10:18:41;;;;;;;46.83;25.47;;;;;;;;;;727720;190;921202;-60
2022/12/19 10:21:06;;;;;;;51.10;23.67;;;;;;;;;;743824;188;884536;-58
2022/12/19 10:23:48;;;;;;;49.40;26.40;;;;;;;;;;733062;189;921615;-59
2022/12/19 10:26:19;;;;;;;45.40;26.17;;;;;;;;;;728230;188;919304;-59
2022/12/19 10:28:47;;;;;;;54.63;26.02;;;;;;;;;;737070;189;919200;-60
2022/12/19 10:31:16;;;;;;;44.00;22.73;;;;;;;;;;735758;188;919390;-59
2022/12/19 10:33:59;;;;;;;51.00;24.93;;;;;;;;;;745733;188;919003;-60
2022/12/19 10:36:24;;;;;;;50.77;23.90;;;;;;;;;;737684;188;846209;-60
2022/12/19 10:38:51;;;;;;;49.00;23.73;;;;;;;;;;738036;189;918073;-60
2022/12/19 10:41:18;;;;;;;47.57;24.13;;;;;;;;;;734814;188;919473;-59
2022/12/19 10:43:47;;;;;;;48.73;26.37;;;;;;;;;;737000;188;920161;-59
2022/12/19 10:46:16;;;;;;;42.77;24.20;;;;;;;;;;739121;188;919996;-61
2022/12/19 10:48:42;;;;;;;47.37;22.80;;;;;;;;;;742069;188;919231;-59
2022/12/19 10:51:09;;;;;;;52.40;25.37;;;;;;;;;;722386;191;917677;-59
2022/12/19 10:53:35;;;;;;;50.30;25.80;;;;;;;;;;735545;188;914981;-59
2022/12/19 10:56:00;;;;;;;50.42;27.15;;;;;;;;;;730373;188;1158694;-60
2022/12/19 10:58:27;;;;;;;46.08;23.15;;;;;;;;;;735401;188;922322;-60
2022/12/19 11:01:08;;;;;;;54.00;25.80;;;;;;;;;;735112;188;920394;-60
2022/12/19 11:03:34;;;;;;;51.10;27.92;;;;;;;;;;735908;188;919180;-62
2022/12/19 11:06:01;;;;;;;51.13;26.40;;;;;;;;;;740434;187;817892;-60
2022/12/19 11:08:25;;;;;;;56.87;26.50;;;;;;;;;;731300;188;917260;-62
2022/12/19 11:10:52;;;;;;;54.93;26.60;;;;;;;;;;739405;187;933652;-60
2022/12/19 11:13:21;;;;;;;58.40;27.17;;;;;;;;;;743869;188;921796;-62
2022/12/19 11:15:47;;;;;;;48.60;25.37;;;;;;;;;;738952;188;917037;-61
2022/12/19 11:18:13;;;;;;;54.97;26.63;;;;;;;;;;741456;188;918431;-61
2022/12/19 11:20:38;;;;;;;54.23;26.63;;;;;;;;;;739622;187;864703;-61
2022/12/19 11:23:04;;;;;;;56.33;25.50;;;;;;;;;;746561;185;876457;-59
2022/12/19 11:25:33;;;;;;;47.93;24.90;;;;;;;;;;741986;187;918536;-59
2022/12/19 11:27:58;;;;;;;48.40;24.83;;;;;;;;;;741993;187;919148;-59
2022/12/19 11:30:24;;;;;;;42.25;23.10;;;;;;;;;;744602;188;918333;-58
2022/12/19 11:33:07;;;;;;;50.13;25.67;;;;;;;;;;737337;187;914534;-59
2022/12/19 11:35:33;;;;;;;59.80;24.40;;;;;;;;;;738479;188;913703;-60
2022/12/19 11:37:59;;;;;;;51.60;24.37;;;;;;;;;;735878;188;917492;-59
2022/12/19 11:40:42;;;;;;;40.60;21.90;;;;;;;;;;740442;188;925118;-58
2022/12/19 11:43:08;;;;;;;49.30;22.80;;;;;;;;;;742312;187;918862;-58
2022/12/19 11:45:35;;;;;;;44.05;20.98;;;;;;;;;;728617;187;919308;-60
2022/12/19 11:48:01;;;;;;;44.67;22.17;;;;;;;;;;738276;187;919697;-59
2022/12/19 11:50:27;;;;;;;52.77;24.20;;;;;;;;;;742490;188;916582;-60
2022/12/19 11:52:56;;;;;;;46.87;24.07;;;;;;;;;;745453;187;918805;-58
2022/12/19 11:55:24;;;;;;;40.20;21.70;;;;;;;;;;737292;186;942253;-57
2022/12/19 11:57:50;;;;;;;39.65;21.67;;;;;;;;;;740165;186;914734;-60
2022/12/19 12:00:19;;;;;;;42.10;20.90;;;;;;;;;;744408;188;914926;-57
2022/12/19 12:02:48;;;;;;;44.40;23.33;;;;;;;;;;741711;188;923507;-60
2022/12/19 12:05:18;;;;;;;47.20;26.37;;;;;;;;;;741833;188;920033;-60
2022/12/19 12:07:44;;;;;;;45.57;20.70;;;;;;;;;;738146;187;920162;-58
2022/12/19 12:10:14;;;;;;;44.80;22.60;;;;;;;;;;747022;188;716552;-60
2022/12/19 12:12:42;;;;;;;45.87;23.77;;;;;;;;;;728131;188;918822;-58
2022/12/19 12:15:09;;;;;;;46.50;22.03;;;;;;;;;;744721;188;916861;-58
2022/12/19 12:17:47;;;;;;;45.60;22.50;;;;;;;;;;738022;187;918125;-57
2022/12/19 12:20:14;;;;;;;41.43;20.83;;;;;;;;;;741839;188;918898;-58
2022/12/19 12:22:49;;;;;;;39.10;19.40;;;;;;;;;;742132;189;886473;-59
2022/12/19 12:25:17;;;;;;;32.23;17.57;;;;;;;;;;729670;188;922288;-59
2022/12/19 12:28:00;;;;;;;40.50;19.33;;;;;;;;;;732665;188;918981;-60
2022/12/19 12:30:25;;;;;;;36.17;18.57;;;;;;;;;;735901;190;917905;-58
2022/12/19 12:32:57;;;;;;;26.27;13.43;;;;;;;;;;742084;186;921971;-61
2022/12/19 12:35:29;;;;;;;25.47;13.10;;;;;;;;;;745958;186;919504;-58
2022/12/19 12:38:01;;;;;;;25.10;11.73;;;;;;;;;;740948;188;920848;-61
2022/12/19 12:40:46;;;;;;;25.97;13.40;;;;;;;;;;738062;188;919801;-59
2022/12/19 12:43:22;;;;;;;25.80;11.83;;;;;;;;;;729218;188;817396;-58
2022/12/19 12:45:48;;;;;;;32.70;14.57;;;;;;;;;;736329;187;924646;-59
2022/12/19 12:48:17;;;;;;;29.10;15.13;;;;;;;;;;742953;188;919614;-60
2022/12/19 12:50:43;;;;;;;26.10;13.97;;;;;;;;;;739205;189;921692;-60
2022/12/19 12:53:08;;;;;;;24.73;14.10;;;;;;;;;;729512;188;915628;-60
2022/12/19 12:55:38;;;;;;;23.50;12.87;;;;;;;;;;732368;188;921444;-57
2022/12/19 12:58:00;;;;;;;27.55;12.77;;;;;;;;;;735759;188;919405;-57
2022/12/19 13:00:29;;;;;;;28.40;13.23;;;;;;;;;;736515;188;716101;-58
2022/12/19 13:02:57;;;;;;;23.25;12.18;;;;;;;;;;733537;188;913764;-58
2022/12/19 13:05:29;;;;;;;25.47;11.80;;;;;;;;;;741404;186;922882;-60
2022/12/19 13:07:54;;;;;;;24.83;13.40;;;;;;;;;;744393;187;818759;-57
2022/12/19 13:10:20;;;;;;;24.47;12.10;;;;;;;;;;735999;187;918457;-57
2022/12/19 13:15:30;;;;;;;23.53;13.30;;;;;;;;;;734990;187;917931;-57
2022/12/19 13:18:09;;;;;;;22.60;12.10;;;;;;;;;;732768;188;872504;-57
2022/12/19 13:20:38;;;;;;;31.70;14.43;;;;;;;;;;738627;187;918701;-59
2022/12/19 13:23:04;;;;;;;24.20;14.40;;;;;;;;;;741245;188;919812;-59
2022/12/19 13:25:30;;;;;;;26.70;14.00;;;;;;;;;;737096;189;814018;-60
2022/12/19 13:27:56;;;;;;;28.10;13.40;;;;;;;;;;744257;187;918905;-57
2022/12/19 13:30:21;;;;;;;28.37;13.90;;;;;;;;;;744103;188;919369;-58
2022/12/19 13:32:57;;;;;;;26.30;13.50;;;;;;;;;;730805;189;918600;-59
2022/12/19 13:35:33;;;;;;;30.53;14.37;;;;;;;;;;736799;185;918406;-57
2022/12/19 13:38:04;;;;;;;28.67;14.93;;;;;;;;;;746239;187;889618;-59
2022/12/19 13:40:30;;;;;;;30.20;13.87;;;;;;;;;;740139;188;870504;-57
2022/12/19 13:45:33;;;;;;;32.33;15.20;;;;;;;;;;738019;186;917047;-59
2022/12/19 13:47:59;;;;;;;31.37;13.98;;;;;;;;;;740580;187;925436;-56
2022/12/19 13:50:25;;;;;;;38.00;18.57;;;;;;;;;;733018;188;975828;-59
2022/12/19 13:52:50;;;;;;;32.20;19.07;;;;;;;;;;744158;187;816401;-59
2022/12/19 13:55:16;;;;;;;43.53;21.30;;;;;;;;;;737954;188;916066;-59
2022/12/19 13:57:42;;;;;;;38.70;19.20;;;;;;;;;;740135;188;816482;-56
2022/12/19 14:00:09;;;;;;;38.65;20.88;;;;;;;;;;743605;187;816630;-59
2022/12/19 14:02:35;;;;;;;34.63;21.13;;;;;;;;;;741270;187;920209;-56
2022/12/19 14:05:00;;;;;;;43.27;22.30;;;;;;;;;;741568;187;913063;-56
2022/12/19 14:07:26;;;;;;;41.70;20.10;;;;;;;;;;734087;187;911710;-59